sensor_id;sensor_type;location;lat;lon;timestamp;pressure;altitude;pressure_sealevel;temperature;humidity
22662;BME280;11497;52.222;21.246;2022-11-25T00:01:43;100379.69;;;0.30;93.27
22662;BME280;11497;52.222;21.246;2022-11-25T00:04:11;100372.84;;;0.36;93.34
22662;BME280;11497;52.222;21.246;2022-11-25T00:06:41;100370.25;;;0.32;93.45
22662;BME280;11497;52.222;21.246;2022-11-25T00:09:12;100372.03;;;0.38;93.19
22662;BME280;11497;52.222;21.246;2022-11-25T00:11:41;100371.13;;;0.35;93.10
22662;BME280;11497;52.222;21.246;2022-11-25T00:14:12;100373.78;;;0.42;93.35
22662;BME280;11497;52.222;21.246;2022-11-25T00:16:41;100384.97;;;0.52;93.39
22662;BME280;11497;52.222;21.246;2022-11-25T00:19:15;100375.63;;;0.63;93.00
22662;BME280;11497;52.222;21.246;2022-11-25T00:21:43;100371.38;;;0.71;92.96
22662;BME280;11497;52.222;21.246;2022-11-25T00:24:14;100385.88;;;0.57;92.53
22662;BME280;11497;52.222;21.246;2022-11-25T00:26:42;100379.06;;;0.65;92.46
22662;BME280;11497;52.222;21.246;2022-11-25T00:29:11;100383.44;;;0.75;92.14
22662;BME280;11497;52.222;21.246;2022-11-25T00:31:40;100382.47;;;0.62;91.70
22662;BME280;11497;52.222;21.246;2022-11-25T00:34:14;100385.97;;;0.71;91.77
22662;BME280;11497;52.222;21.246;2022-11-25T00:36:42;100385.97;;;0.69;91.55
22662;BME280;11497;52.222;21.246;2022-11-25T00:39:12;100385.94;;;0.66;91.64
22662;BME280;11497;52.222;21.246;2022-11-25T00:41:42;100396.16;;;0.57;91.39
22662;BME280;11497;52.222;21.246;2022-11-25T00:44:29;100390.16;;;0.55;91.66
22662;BME280;11497;52.222;21.246;2022-11-25T00:47:17;100392.78;;;0.64;91.65
22662;BME280;11497;52.222;21.246;2022-11-25T00:49:47;100397.09;;;0.65;91.39
22662;BME280;11497;52.222;21.246;2022-11-25T00:52:20;100397.84;;;0.53;91.20
22662;BME280;11497;52.222;21.246;2022-11-25T00:54:49;100398.66;;;0.46;91.61
22662;BME280;11497;52.222;21.246;2022-11-25T00:57:20;100398.94;;;0.84;91.32
22662;BME280;11497;52.222;21.246;2022-11-25T00:59:48;100401.44;;;0.72;91.02
22662;BME280;11497;52.222;21.246;2022-11-25T01:02:17;100404.13;;;0.93;90.87
22662;BME280;11497;52.222;21.246;2022-11-25T01:04:46;100397.22;;;0.83;90.28
22662;BME280;11497;52.222;21.246;2022-11-25T01:07:16;100394.69;;;0.97;90.12
22662;BME280;11497;52.222;21.246;2022-11-25T01:09:44;100392.16;;;1.03;89.55
22662;BME280;11497;52.222;21.246;2022-11-25T01:12:12;100394.81;;;1.14;88.58
22662;BME280;11497;52.222;21.246;2022-11-25T01:14:40;100393.78;;;0.81;88.67
22662;BME280;11497;52.222;21.246;2022-11-25T01:17:08;100399.72;;;0.73;88.90
22662;BME280;11497;52.222;21.246;2022-11-25T01:19:36;100397.16;;;0.74;89.52
22662;BME280;11497;52.222;21.246;2022-11-25T01:22:08;100397.06;;;0.62;89.56
22662;BME280;11497;52.222;21.246;2022-11-25T01:24:36;100403.06;;;0.59;89.86
22662;BME280;11497;52.222;21.246;2022-11-25T01:27:05;100402.34;;;0.80;90.00
22662;BME280;11497;52.222;21.246;2022-11-25T01:29:33;100404.09;;;0.84;89.68
22662;BME280;11497;52.222;21.246;2022-11-25T01:32:01;100402.31;;;0.74;89.37
22662;BME280;11497;52.222;21.246;2022-11-25T01:34:29;100413.38;;;0.59;89.45
22662;BME280;11497;52.222;21.246;2022-11-25T01:36:59;100413.34;;;0.58;89.70
22662;BME280;11497;52.222;21.246;2022-11-25T01:39:27;100410.69;;;0.49;90.35
22662;BME280;11497;52.222;21.246;2022-11-25T01:42:00;100415.16;;;0.70;90.37
22662;BME280;11497;52.222;21.246;2022-11-25T01:44:30;100412.44;;;0.53;90.27
22662;BME280;11497;52.222;21.246;2022-11-25T01:47:19;100414.09;;;0.45;90.42
22662;BME280;11497;52.222;21.246;2022-11-25T01:50:01;100420.22;;;0.60;90.42
22662;BME280;11497;52.222;21.246;2022-11-25T01:52:44;100421.88;;;0.52;90.44
22662;BME280;11497;52.222;21.246;2022-11-25T01:55:19;100420.97;;;0.43;90.34
22662;BME280;11497;52.222;21.246;2022-11-25T01:57:54;100419.28;;;0.48;90.66
22662;BME280;11497;52.222;21.246;2022-11-25T02:00:24;100425.28;;;0.48;90.54
22662;BME280;11497;52.222;21.246;2022-11-25T02:02:54;100428.72;;;0.49;90.69
22662;BME280;11497;52.222;21.246;2022-11-25T02:05:28;100431.28;;;0.49;90.85
22662;BME280;11497;52.222;21.246;2022-11-25T02:08:01;100427.88;;;0.50;90.63
22662;BME280;11497;52.222;21.246;2022-11-25T02:10:31;100426.16;;;0.52;90.63
22662;BME280;11497;52.222;21.246;2022-11-25T02:13:02;100427.19;;;0.71;90.31
22662;BME280;11497;52.222;21.246;2022-11-25T02:15:33;100434.91;;;0.69;90.01
22662;BME280;11497;52.222;21.246;2022-11-25T02:18:04;100428.84;;;0.64;89.96
22662;BME280;11497;52.222;21.246;2022-11-25T02:20:32;100432.41;;;0.78;89.73
22662;BME280;11497;52.222;21.246;2022-11-25T02:25:46;100427.97;;;0.62;90.18
22662;BME280;11497;52.222;21.246;2022-11-25T02:30:45;100433.09;;;0.59;89.89
22662;BME280;11497;52.222;21.246;2022-11-25T02:33:14;100427.81;;;0.44;90.14
22662;BME280;11497;52.222;21.246;2022-11-25T02:35:50;100426.03;;;0.32;90.69
22662;BME280;11497;52.222;21.246;2022-11-25T02:38:44;100429.53;;;0.39;91.06
22662;BME280;11497;52.222;21.246;2022-11-25T02:41:31;100429.53;;;0.39;91.08
22662;BME280;11497;52.222;21.246;2022-11-25T02:44:04;100424.25;;;0.26;91.28
22662;BME280;11497;52.222;21.246;2022-11-25T02:46:33;100426.88;;;0.29;91.60
22662;BME280;11497;52.222;21.246;2022-11-25T02:49:02;100424.50;;;0.57;91.47
22662;BME280;11497;52.222;21.246;2022-11-25T02:51:41;100432.44;;;0.83;90.50
22662;BME280;11497;52.222;21.246;2022-11-25T02:54:15;100436.56;;;0.62;90.55
22662;BME280;11497;52.222;21.246;2022-11-25T02:56:43;100426.13;;;0.46;90.97
22662;BME280;11497;52.222;21.246;2022-11-25T02:59:12;100423.53;;;0.44;90.74
22662;BME280;11497;52.222;21.246;2022-11-25T03:01:39;100428.81;;;0.61;90.71
22662;BME280;11497;52.222;21.246;2022-11-25T03:04:09;100433.19;;;0.68;90.60
22662;BME280;11497;52.222;21.246;2022-11-25T03:06:37;100427.84;;;0.47;90.45
22662;BME280;11497;52.222;21.246;2022-11-25T03:09:07;100426.19;;;0.55;90.62
22662;BME280;11497;52.222;21.246;2022-11-25T03:11:37;100430.47;;;0.51;90.80
22662;BME280;11497;52.222;21.246;2022-11-25T03:14:24;100435.50;;;0.36;91.03
22662;BME280;11497;52.222;21.246;2022-11-25T03:16:52;100437.22;;;0.36;91.00
22662;BME280;11497;52.222;21.246;2022-11-25T03:19:20;100451.03;;;0.47;91.34
22662;BME280;11497;52.222;21.246;2022-11-25T03:21:48;100439.16;;;0.65;91.01
22662;BME280;11497;52.222;21.246;2022-11-25T03:24:16;100450.19;;;0.51;91.10
22662;BME280;11497;52.222;21.246;2022-11-25T03:26:47;100445.94;;;0.56;90.98
22662;BME280;11497;52.222;21.246;2022-11-25T03:29:15;100452.81;;;0.55;91.28
22662;BME280;11497;52.222;21.246;2022-11-25T03:31:43;100451.88;;;0.46;91.09
22662;BME280;11497;52.222;21.246;2022-11-25T03:34:12;100453.56;;;0.41;91.13
22662;BME280;11497;52.222;21.246;2022-11-25T03:36:40;100444.94;;;0.36;91.73
22662;BME280;11497;52.222;21.246;2022-11-25T03:39:09;100449.56;;;0.78;91.44
22662;BME280;11497;52.222;21.246;2022-11-25T03:41:37;100448.53;;;0.57;90.91
22662;BME280;11497;52.222;21.246;2022-11-25T03:44:06;100453.84;;;0.74;91.08
22662;BME280;11497;52.222;21.246;2022-11-25T03:46:35;100458.97;;;0.74;90.63
22662;BME280;11497;52.222;21.246;2022-11-25T03:49:06;100465.78;;;0.66;90.47
22662;BME280;11497;52.222;21.246;2022-11-25T03:51:34;100458.78;;;0.50;90.45
22662;BME280;11497;52.222;21.246;2022-11-25T03:54:02;100463.09;;;0.54;91.01
22662;BME280;11497;52.222;21.246;2022-11-25T03:56:45;100457.88;;;0.46;90.99
22662;BME280;11497;52.222;21.246;2022-11-25T03:59:13;100463.78;;;0.31;91.33
22662;BME280;11497;52.222;21.246;2022-11-25T04:01:40;100472.44;;;0.38;91.79
22662;BME280;11497;52.222;21.246;2022-11-25T04:04:12;100469.91;;;0.47;91.90
22662;BME280;11497;52.222;21.246;2022-11-25T04:06:39;100475.00;;;0.38;91.87
22662;BME280;11497;52.222;21.246;2022-11-25T04:09:09;100476.72;;;0.38;91.99
22662;BME280;11497;52.222;21.246;2022-11-25T04:11:38;100475.81;;;0.32;92.07
22662;BME280;11497;52.222;21.246;2022-11-25T04:14:29;100477.66;;;0.49;91.79
22662;BME280;11497;52.222;21.246;2022-11-25T04:16:58;100484.34;;;0.28;91.93
22662;BME280;11497;52.222;21.246;2022-11-25T04:19:26;100480.84;;;0.23;92.12
22662;BME280;11497;52.222;21.246;2022-11-25T04:21:54;100478.34;;;0.31;92.64
22662;BME280;11497;52.222;21.246;2022-11-25T04:24:22;100482.59;;;0.24;92.76
22662;BME280;11497;52.222;21.246;2022-11-25T04:26:50;100479.16;;;0.25;93.25
22662;BME280;11497;52.222;21.246;2022-11-25T04:29:18;100487.88;;;0.38;92.96
22662;BME280;11497;52.222;21.246;2022-11-25T04:31:48;100492.06;;;0.28;92.87
22662;BME280;11497;52.222;21.246;2022-11-25T04:34:16;100494.66;;;0.31;93.05
22662;BME280;11497;52.222;21.246;2022-11-25T04:36:47;100497.31;;;0.39;92.77
22662;BME280;11497;52.222;21.246;2022-11-25T04:39:15;100501.56;;;0.36;92.79
22662;BME280;11497;52.222;21.246;2022-11-25T04:41:44;100491.09;;;0.17;93.11
22662;BME280;11497;52.222;21.246;2022-11-25T04:44:13;100495.34;;;0.15;93.62
22662;BME280;11497;52.222;21.246;2022-11-25T04:46:42;100498.97;;;0.31;93.77
22662;BME280;11497;52.222;21.246;2022-11-25T04:49:11;100502.19;;;0.13;93.77
22662;BME280;11497;52.222;21.246;2022-11-25T04:51:39;100505.72;;;0.23;94.04
22662;BME280;11497;52.222;21.246;2022-11-25T04:54:07;100502.31;;;0.24;94.38
22662;BME280;11497;52.222;21.246;2022-11-25T04:56:40;100503.03;;;0.12;94.56
22662;BME280;11497;52.222;21.246;2022-11-25T04:59:08;100503.88;;;0.10;94.86
22662;BME280;11497;52.222;21.246;2022-11-25T05:01:54;100508.41;;;0.32;94.93
22662;BME280;11497;52.222;21.246;2022-11-25T05:04:29;100510.22;;;0.44;94.47
22662;BME280;11497;52.222;21.246;2022-11-25T05:06:57;100509.97;;;0.19;94.96
22662;BME280;11497;52.222;21.246;2022-11-25T05:09:25;100518.59;;;0.23;95.12
22662;BME280;11497;52.222;21.246;2022-11-25T05:12:19;100523.66;;;0.15;95.64
22662;BME280;11497;52.222;21.246;2022-11-25T05:14:48;100521.34;;;0.38;95.65
22662;BME280;11497;52.222;21.246;2022-11-25T05:17:22;100521.22;;;0.27;95.66
22662;BME280;11497;52.222;21.246;2022-11-25T05:19:51;100522.13;;;0.31;95.61
22662;BME280;11497;52.222;21.246;2022-11-25T05:22:23;100523.88;;;0.33;95.94
22662;BME280;11497;52.222;21.246;2022-11-25T05:24:52;100528.94;;;0.27;96.08
22662;BME280;11497;52.222;21.246;2022-11-25T05:27:21;100530.69;;;0.28;96.26
22662;BME280;11497;52.222;21.246;2022-11-25T05:29:50;100524.78;;;0.40;96.08
22662;BME280;11497;52.222;21.246;2022-11-25T05:32:23;100536.09;;;0.57;96.15
22662;BME280;11497;52.222;21.246;2022-11-25T05:34:53;100530.88;;;0.50;95.42
22662;BME280;11497;52.222;21.246;2022-11-25T05:37:21;100527.34;;;0.39;95.36
22662;BME280;11497;52.222;21.246;2022-11-25T05:39:58;100529.00;;;0.33;95.37
22662;BME280;11497;52.222;21.246;2022-11-25T05:42:45;100528.25;;;0.47;95.90
22662;BME280;11497;52.222;21.246;2022-11-25T05:45:13;100532.56;;;0.48;95.64
22662;BME280;11497;52.222;21.246;2022-11-25T05:47:42;100538.44;;;0.31;95.63
22662;BME280;11497;52.222;21.246;2022-11-25T05:50:13;100535.78;;;0.25;95.62
22662;BME280;11497;52.222;21.246;2022-11-25T05:53:01;100535.91;;;0.35;96.33
22662;BME280;11497;52.222;21.246;2022-11-25T05:55:30;100544.53;;;0.40;96.19
22662;BME280;11497;52.222;21.246;2022-11-25T05:58:02;100539.41;;;0.44;96.08
22662;BME280;11497;52.222;21.246;2022-11-25T06:00:33;100539.47;;;0.50;96.20
22662;BME280;11497;52.222;21.246;2022-11-25T06:03:07;100542.09;;;0.55;96.22
22662;BME280;11497;52.222;21.246;2022-11-25T06:05:36;100542.88;;;0.48;96.09
22662;BME280;11497;52.222;21.246;2022-11-25T06:08:03;100552.19;;;0.33;96.08
22662;BME280;11497;52.222;21.246;2022-11-25T06:10:32;100547.03;;;0.32;96.34
22662;BME280;11497;52.222;21.246;2022-11-25T06:12:59;100553.91;;;0.33;96.56
22662;BME280;11497;52.222;21.246;2022-11-25T06:15:28;100548.88;;;0.47;96.70
22662;BME280;11497;52.222;21.246;2022-11-25T06:17:57;100557.47;;;0.49;96.48
22662;BME280;11497;52.222;21.246;2022-11-25T06:20:27;100547.94;;;0.39;96.21
22662;BME280;11497;52.222;21.246;2022-11-25T06:22:57;100558.22;;;0.36;96.22
22662;BME280;11497;52.222;21.246;2022-11-25T06:25:31;100552.19;;;0.35;96.23
22662;BME280;11497;52.222;21.246;2022-11-25T06:28:00;100561.56;;;0.28;96.52
22662;BME280;11497;52.222;21.246;2022-11-25T06:30:49;100557.34;;;0.33;96.80
22662;BME280;11497;52.222;21.246;2022-11-25T06:33:24;100551.56;;;0.59;97.09
22662;BME280;11497;52.222;21.246;2022-11-25T06:35:52;100568.63;;;0.48;96.48
22662;BME280;11497;52.222;21.246;2022-11-25T06:38:20;100560.88;;;0.43;96.90
22662;BME280;11497;52.222;21.246;2022-11-25T06:40:48;100562.00;;;0.71;96.49
22662;BME280;11497;52.222;21.246;2022-11-25T06:43:15;100565.53;;;0.82;95.95
22662;BME280;11497;52.222;21.246;2022-11-25T06:45:43;100567.00;;;0.57;95.58
22662;BME280;11497;52.222;21.246;2022-11-25T06:48:11;100560.00;;;0.46;96.11
22662;BME280;11497;52.222;21.246;2022-11-25T06:50:39;100563.47;;;0.48;96.15
22662;BME280;11497;52.222;21.246;2022-11-25T06:53:07;100568.72;;;0.57;96.27
22662;BME280;11497;52.222;21.246;2022-11-25T06:55:35;100567.13;;;0.68;96.10
22662;BME280;11497;52.222;21.246;2022-11-25T06:58:03;100579.34;;;0.93;96.11
22662;BME280;11497;52.222;21.246;2022-11-25T07:00:51;100570.81;;;1.00;95.40
22662;BME280;11497;52.222;21.246;2022-11-25T07:03:18;100579.53;;;1.15;95.15
22662;BME280;11497;52.222;21.246;2022-11-25T07:05:46;100581.09;;;0.97;94.80
22662;BME280;11497;52.222;21.246;2022-11-25T07:08:14;100575.19;;;1.08;94.71
22662;BME280;11497;52.222;21.246;2022-11-25T07:10:42;100576.91;;;1.07;94.27
22662;BME280;11497;52.222;21.246;2022-11-25T07:13:10;100583.69;;;0.97;93.88
22662;BME280;11497;52.222;21.246;2022-11-25T07:15:38;100579.47;;;1.06;93.82
22662;BME280;11497;52.222;21.246;2022-11-25T07:18:06;100579.56;;;1.16;93.31
22662;BME280;11497;52.222;21.246;2022-11-25T07:20:34;100588.22;;;1.24;93.17
22662;BME280;11497;52.222;21.246;2022-11-25T07:23:01;100584.88;;;1.39;92.92
22662;BME280;11497;52.222;21.246;2022-11-25T07:25:31;100583.06;;;1.23;92.64
22662;BME280;11497;52.222;21.246;2022-11-25T07:27:59;100585.59;;;1.20;92.84
22662;BME280;11497;52.222;21.246;2022-11-25T07:30:27;100591.63;;;1.22;92.73
22662;BME280;11497;52.222;21.246;2022-11-25T07:33:15;100590.81;;;1.26;92.71
22662;BME280;11497;52.222;21.246;2022-11-25T07:35:43;100593.38;;;1.23;92.95
22662;BME280;11497;52.222;21.246;2022-11-25T07:38:11;100596.19;;;1.61;92.02
22662;BME280;11497;52.222;21.246;2022-11-25T07:40:39;100593.53;;;1.50;91.77
22662;BME280;11497;52.222;21.246;2022-11-25T07:43:06;100600.28;;;1.33;91.58
22662;BME280;11497;52.222;21.246;2022-11-25T07:45:34;100598.66;;;1.46;91.66
22662;BME280;11497;52.222;21.246;2022-11-25T07:48:07;100599.44;;;1.36;91.69
22662;BME280;11497;52.222;21.246;2022-11-25T07:50:35;100602.03;;;1.37;91.65
22662;BME280;11497;52.222;21.246;2022-11-25T07:53:03;100594.25;;;1.26;92.19
22662;BME280;11497;52.222;21.246;2022-11-25T07:55:31;100603.97;;;1.64;91.92
22662;BME280;11497;52.222;21.246;2022-11-25T07:57:59;100601.41;;;1.69;91.51
22662;BME280;11497;52.222;21.246;2022-11-25T08:00:27;100598.78;;;1.59;91.16
22662;BME280;11497;52.222;21.246;2022-11-25T08:02:55;100596.19;;;1.59;91.31
22662;BME280;11497;52.222;21.246;2022-11-25T08:05:23;100606.63;;;1.79;91.17
22662;BME280;11497;52.222;21.246;2022-11-25T08:07:51;100605.75;;;1.79;90.66
22662;BME280;11497;52.222;21.246;2022-11-25T08:10:19;100593.69;;;1.78;90.58
22662;BME280;11497;52.222;21.246;2022-11-25T08:12:47;100604.91;;;1.83;90.73
22662;BME280;11497;52.222;21.246;2022-11-25T08:15:15;100604.94;;;1.89;90.92
22662;BME280;11497;52.222;21.246;2022-11-25T08:17:43;100598.91;;;1.87;90.38
22662;BME280;11497;52.222;21.246;2022-11-25T08:20:11;100612.84;;;2.22;90.13
22662;BME280;11497;52.222;21.246;2022-11-25T08:22:39;100604.22;;;2.11;89.60
22662;BME280;11497;52.222;21.246;2022-11-25T08:25:07;100617.13;;;2.14;89.30
22662;BME280;11497;52.222;21.246;2022-11-25T08:27:35;100610.19;;;2.01;89.34
22662;BME280;11497;52.222;21.246;2022-11-25T08:30:04;100630.16;;;2.46;89.03
22662;BME280;11497;52.222;21.246;2022-11-25T08:32:39;100620.59;;;2.16;88.01
22662;BME280;11497;52.222;21.246;2022-11-25T08:35:07;100624.00;;;2.09;88.14
22662;BME280;11497;52.222;21.246;2022-11-25T08:37:35;100629.97;;;1.99;88.46
22662;BME280;11497;52.222;21.246;2022-11-25T08:40:03;100633.44;;;2.04;88.52
22662;BME280;11497;52.222;21.246;2022-11-25T08:42:31;100629.13;;;2.02;88.36
22662;BME280;11497;52.222;21.246;2022-11-25T08:45:00;100627.44;;;2.07;88.67
22662;BME280;11497;52.222;21.246;2022-11-25T08:47:28;100635.28;;;2.32;88.65
22662;BME280;11497;52.222;21.246;2022-11-25T08:49:58;100634.34;;;2.18;87.98
22662;BME280;11497;52.222;21.246;2022-11-25T08:52:25;100628.38;;;2.31;88.03
22662;BME280;11497;52.222;21.246;2022-11-25T08:54:55;100646.41;;;2.24;87.38
22662;BME280;11497;52.222;21.246;2022-11-25T08:57:23;100645.69;;;2.52;86.52
22662;BME280;11497;52.222;21.246;2022-11-25T08:59:51;100647.38;;;2.43;86.58
22662;BME280;11497;52.222;21.246;2022-11-25T09:02:19;100644.78;;;2.38;86.69
22662;BME280;11497;52.222;21.246;2022-11-25T09:04:47;100650.75;;;2.29;87.04
22662;BME280;11497;52.222;21.246;2022-11-25T09:07:15;100642.19;;;2.40;86.60
22662;BME280;11497;52.222;21.246;2022-11-25T09:09:43;100655.91;;;2.26;86.66
22662;BME280;11497;52.222;21.246;2022-11-25T09:12:11;100652.53;;;2.40;86.51
22662;BME280;11497;52.222;21.246;2022-11-25T09:14:39;100653.41;;;2.46;86.51
22662;BME280;11497;52.222;21.246;2022-11-25T09:17:09;100653.38;;;2.36;86.57
22662;BME280;11497;52.222;21.246;2022-11-25T09:19:38;100654.22;;;2.38;86.65
22662;BME280;11497;52.222;21.246;2022-11-25T09:22:06;100656.06;;;2.69;86.10
22662;BME280;11497;52.222;21.246;2022-11-25T09:24:35;100651.75;;;2.59;86.09
22662;BME280;11497;52.222;21.246;2022-11-25T09:27:03;100651.72;;;2.51;85.97
22662;BME280;11497;52.222;21.246;2022-11-25T09:29:31;100649.13;;;2.62;85.12
22662;BME280;11497;52.222;21.246;2022-11-25T09:32:00;100648.25;;;2.48;85.26
22662;BME280;11497;52.222;21.246;2022-11-25T09:34:28;100653.44;;;2.49;84.89
22662;BME280;11497;52.222;21.246;2022-11-25T09:36:56;100652.47;;;2.30;85.35
22662;BME280;11497;52.222;21.246;2022-11-25T09:39:24;100654.19;;;2.25;85.64
22662;BME280;11497;52.222;21.246;2022-11-25T09:44:58;100656.81;;;2.38;85.95
22662;BME280;11497;52.222;21.246;2022-11-25T09:51:07;100650.00;;;2.50;85.80
22662;BME280;11497;52.222;21.246;2022-11-25T09:53:55;100652.50;;;2.33;86.05
22662;BME280;11497;52.222;21.246;2022-11-25T09:56:41;100652.59;;;2.61;85.91
22662;BME280;11497;52.222;21.246;2022-11-25T10:00:00;100648.25;;;2.45;85.56
22662;BME280;11497;52.222;21.246;2022-11-25T10:06:01;100657.72;;;2.43;86.13
22662;BME280;11497;52.222;21.246;2022-11-25T10:08:39;100662.91;;;2.61;85.09
22662;BME280;11497;52.222;21.246;2022-11-25T10:19:53;100672.41;;;2.54;85.22
22662;BME280;11497;52.222;21.246;2022-11-25T10:22:27;100670.63;;;2.41;84.84
22662;BME280;11497;52.222;21.246;2022-11-25T10:25:05;100671.38;;;2.25;85.69
22662;BME280;11497;52.222;21.246;2022-11-25T10:30:58;100680.81;;;2.20;86.50
22662;BME280;11497;52.222;21.246;2022-11-25T10:33:43;100682.53;;;2.10;86.64
22662;BME280;11497;52.222;21.246;2022-11-25T10:39:06;100683.28;;;1.94;87.16
22662;BME280;11497;52.222;21.246;2022-11-25T10:41:51;100685.03;;;2.01;87.32
22662;BME280;11497;52.222;21.246;2022-11-25T10:44:29;100689.34;;;1.99;87.80
22662;BME280;11497;52.222;21.246;2022-11-25T10:55:24;100690.28;;;2.19;86.20
22662;BME280;11497;52.222;21.246;2022-11-25T10:57:54;100690.25;;;2.07;86.80
22662;BME280;11497;52.222;21.246;2022-11-25T11:00:29;100686.66;;;1.85;87.27
22662;BME280;11497;52.222;21.246;2022-11-25T11:03:00;100690.28;;;2.10;87.66
22662;BME280;11497;52.222;21.246;2022-11-25T11:05:48;100691.91;;;1.99;88.08
22662;BME280;11497;52.222;21.246;2022-11-25T11:11:13;100691.91;;;1.96;88.21
22662;BME280;11497;52.222;21.246;2022-11-25T11:13:42;100690.28;;;2.10;87.79
22662;BME280;11497;52.222;21.246;2022-11-25T11:16:27;100689.38;;;2.04;88.22
22662;BME280;11497;52.222;21.246;2022-11-25T11:18:56;100690.31;;;2.25;88.24
22662;BME280;11497;52.222;21.246;2022-11-25T11:21:33;100688.59;;;2.24;87.58
22662;BME280;11497;52.222;21.246;2022-11-25T11:24:14;100688.56;;;2.18;87.59
22662;BME280;11497;52.222;21.246;2022-11-25T11:29:55;100683.53;;;2.40;87.44
22662;BME280;11497;52.222;21.246;2022-11-25T11:32:30;100702.34;;;2.20;87.55
22662;BME280;11497;52.222;21.246;2022-11-25T11:35:14;100695.47;;;2.16;88.12
22662;BME280;11497;52.222;21.246;2022-11-25T11:37:53;100687.59;;;1.98;88.28
22662;BME280;11497;52.222;21.246;2022-11-25T11:40:45;100692.09;;;2.36;88.35
22662;BME280;11497;52.222;21.246;2022-11-25T11:49:11;100698.91;;;2.15;87.68
22662;BME280;11497;52.222;21.246;2022-11-25T11:51:52;100695.50;;;2.28;87.59
22662;BME280;11497;52.222;21.246;2022-11-25T11:57:01;100688.53;;;2.08;88.27
22662;BME280;11497;52.222;21.246;2022-11-25T12:05:19;100701.41;;;2.02;89.24
22662;BME280;11497;52.222;21.246;2022-11-25T12:10:35;100703.16;;;2.09;88.69
22662;BME280;11497;52.222;21.246;2022-11-25T12:21:01;100697.19;;;2.20;88.69
22662;BME280;11497;52.222;21.246;2022-11-25T12:23:44;100698.91;;;2.21;88.69
22662;BME280;11497;52.222;21.246;2022-11-25T12:26:21;100700.59;;;2.09;88.52
22662;BME280;11497;52.222;21.246;2022-11-25T12:29:04;100707.50;;;2.14;89.19
22662;BME280;11497;52.222;21.246;2022-11-25T12:31:43;100701.66;;;2.49;88.30
22662;BME280;11497;52.222;21.246;2022-11-25T12:34:27;100710.09;;;2.22;88.10
22662;BME280;11497;52.222;21.246;2022-11-25T12:37:09;100704.06;;;2.15;88.81
22662;BME280;11497;52.222;21.246;2022-11-25T12:39:59;100696.38;;;2.27;88.93
22662;BME280;11497;52.222;21.246;2022-11-25T12:42:30;100703.25;;;2.27;88.73
22662;BME280;11497;52.222;21.246;2022-11-25T12:47:30;100693.03;;;2.47;88.73
22662;BME280;11497;52.222;21.246;2022-11-25T12:49:58;100697.38;;;2.63;87.43
22662;BME280;11497;52.222;21.246;2022-11-25T12:55:22;100694.78;;;2.54;87.42
22662;BME280;11497;52.222;21.246;2022-11-25T13:01:15;100703.38;;;2.51;87.42
22662;BME280;11497;52.222;21.246;2022-11-25T13:03:55;100699.09;;;2.61;86.89
22662;BME280;11497;52.222;21.246;2022-11-25T13:09:43;100706.78;;;2.43;87.51
22662;BME280;11497;52.222;21.246;2022-11-25T13:18:02;100706.69;;;2.27;87.80
22662;BME280;11497;52.222;21.246;2022-11-25T13:20:41;100710.94;;;2.19;87.75
22662;BME280;11497;52.222;21.246;2022-11-25T13:25:41;100712.66;;;2.11;88.20
22662;BME280;11497;52.222;21.246;2022-11-25T13:28:33;100710.06;;;2.10;88.59
22662;BME280;11497;52.222;21.246;2022-11-25T13:31:31;100704.13;;;2.27;88.99
22662;BME280;11497;52.222;21.246;2022-11-25T13:34:07;100714.44;;;2.27;88.30
22662;BME280;11497;52.222;21.246;2022-11-25T13:36:48;100706.66;;;2.15;88.54
22662;BME280;11497;52.222;21.246;2022-11-25T13:44:56;100714.41;;;2.15;88.64
22662;BME280;11497;52.222;21.246;2022-11-25T13:47:34;100720.41;;;2.14;89.40
22662;BME280;11497;52.222;21.246;2022-11-25T13:50:04;100714.34;;;2.08;89.02
22662;BME280;11497;52.222;21.246;2022-11-25T13:52:46;100726.44;;;2.19;89.40
22662;BME280;11497;52.222;21.246;2022-11-25T14:06:17;100736.75;;;2.10;89.18
22662;BME280;11497;52.222;21.246;2022-11-25T14:25:53;100745.22;;;1.94;90.83
22662;BME280;11497;52.222;21.246;2022-11-25T14:28:35;100745.22;;;1.94;91.11
22662;BME280;11497;52.222;21.246;2022-11-25T14:31:10;100754.63;;;1.87;90.84
22662;BME280;11497;52.222;21.246;2022-11-25T14:33:51;100752.19;;;2.06;91.32
22662;BME280;11497;52.222;21.246;2022-11-25T14:36:45;100755.75;;;2.24;90.49
22662;BME280;11497;52.222;21.246;2022-11-25T14:42:14;100761.53;;;1.90;90.63
22662;BME280;11497;52.222;21.246;2022-11-25T14:44:52;100755.56;;;1.97;91.23
22662;BME280;11497;52.222;21.246;2022-11-25T14:47:27;100754.78;;;2.06;91.36
22662;BME280;11497;52.222;21.246;2022-11-25T14:49:56;100764.16;;;1.96;91.33
22662;BME280;11497;52.222;21.246;2022-11-25T14:52:46;100765.84;;;1.89;91.28
22662;BME280;11497;52.222;21.246;2022-11-25T14:55:35;100745.91;;;1.69;91.69
22662;BME280;11497;52.222;21.246;2022-11-25T14:58:03;100769.25;;;1.87;91.91
22662;BME280;11497;52.222;21.246;2022-11-25T15:00:31;100774.34;;;1.81;92.18
22662;BME280;11497;52.222;21.246;2022-11-25T15:03:01;100768.38;;;1.86;92.07
22662;BME280;11497;52.222;21.246;2022-11-25T15:05:34;100764.09;;;1.87;92.29
22662;BME280;11497;52.222;21.246;2022-11-25T15:10:47;100765.03;;;1.96;92.20
22662;BME280;11497;52.222;21.246;2022-11-25T15:15:53;100776.25;;;2.00;91.99
22662;BME280;11497;52.222;21.246;2022-11-25T15:18:23;100772.78;;;1.98;92.22
22662;BME280;11497;52.222;21.246;2022-11-25T15:20:57;100776.16;;;1.91;92.08
22662;BME280;11497;52.222;21.246;2022-11-25T15:23:30;100776.16;;;1.91;91.89
22662;BME280;11497;52.222;21.246;2022-11-25T15:26:03;100776.09;;;1.83;92.07
22662;BME280;11497;52.222;21.246;2022-11-25T15:28:35;100775.28;;;1.87;92.48